Time;durP1;ratioP1;P1;durP2;ratioP2;P2;SDS_P1;SDS_P2;PMS_P1;PMS_P2;Temp;Humidity;BMP_temperature;BMP_pressure;BME280_temperature;BME280_humidity;BME280_pressure;Samples;Min_cycle;Max_cycle;Signal;HPM_P1;HPM_P2
2022/09/02 00:01:39;;;;;;;0.30;0.30;;;;;;;;;;7383551;19;20106;-70
2022/09/02 00:04:07;;;;;;;0.30;0.30;;;;;;;;;;7374429;19;20121;-71
2022/09/02 00:06:32;;;;;;;0.25;0.25;;;;;;;;;;7383466;19;20129;-71
2022/09/02 00:08:59;;;;;;;0.30;0.30;;;;;;;;;;7381044;19;20512;-71
2022/09/02 00:11:27;;;;;;;0.30;0.30;;;;;;;;;;7379366;19;20161;-70
2022/09/02 00:13:54;;;;;;;0.30;0.30;;;;;;;;;;7379747;19;20185;-71
2022/09/02 00:16:21;;;;;;;0.30;0.30;;;;;;;;;;7379712;19;20153;-71
2022/09/02 00:18:47;;;;;;;0.30;0.30;;;;;;;;;;7376160;19;20541;-71
2022/09/02 00:21:14;;;;;;;0.30;0.30;;;;;;;;;;7378999;19;20138;-71
2022/09/02 00:23:41;;;;;;;0.20;0.20;;;;;;;;;;7377534;19;20125;-71
2022/09/02 00:26:07;;;;;;;0.30;0.30;;;;;;;;;;7375577;19;20106;-71
2022/09/02 00:28:32;;;;;;;0.30;0.30;;;;;;;;;;7378877;19;20518;-70
2022/09/02 00:30:57;;;;;;;0.30;0.30;;;;;;;;;;7382298;19;20117;-70
2022/09/02 00:33:23;;;;;;;0.20;0.20;;;;;;;;;;7377799;19;20125;-70
2022/09/02 00:35:49;;;;;;;0.47;0.47;;;;;;;;;;7376249;19;20109;-71
2022/09/02 00:38:14;;;;;;;0.30;0.30;;;;;;;;;;7378797;19;20221;-70
2022/09/02 00:40:44;;;;;;;0.40;0.40;;;;;;;;;;7377654;19;20600;-70
2022/09/02 00:43:10;;;;;;;0.30;0.30;;;;;;;;;;7378513;19;20489;-70
2022/09/02 00:45:36;;;;;;;0.40;0.40;;;;;;;;;;7376689;19;20109;-70
2022/09/02 00:48:04;;;;;;;0.30;0.30;;;;;;;;;;7374005;19;20635;-70
2022/09/02 00:50:33;;;;;;;0.93;0.93;;;;;;;;;;7374880;19;20131;-70
2022/09/02 00:53:03;;;;;;;0.30;0.30;;;;;;;;;;7372010;19;20121;-70
2022/09/02 00:55:32;;;;;;;0.30;0.30;;;;;;;;;;7375787;19;20121;-70
2022/09/02 00:58:00;;;;;;;0.30;0.30;;;;;;;;;;7373612;19;20109;-71
2022/09/02 01:00:28;;;;;;;0.30;0.30;;;;;;;;;;7377798;19;20109;-71
2022/09/02 01:03:00;;;;;;;0.30;0.30;;;;;;;;;;7376326;19;20156;-71
2022/09/02 01:05:29;;;;;;;0.20;0.20;;;;;;;;;;7381036;19;20129;-71
2022/09/02 01:07:56;;;;;;;0.30;0.30;;;;;;;;;;7379936;19;20172;-70
2022/09/02 01:10:34;;;;;;;0.30;0.30;;;;;;;;;;7376097;19;20110;-71
2022/09/02 01:13:05;;;;;;;0.20;0.20;;;;;;;;;;7377282;19;20162;-71
2022/09/02 01:15:33;;;;;;;0.30;0.30;;;;;;;;;;7379068;19;20113;-70
2022/09/02 01:17:58;;;;;;;0.30;0.30;;;;;;;;;;7380234;19;20583;-71
2022/09/02 01:20:25;;;;;;;0.30;0.30;;;;;;;;;;7380549;19;20133;-71
2022/09/02 01:22:54;;;;;;;0.35;0.35;;;;;;;;;;7378373;19;20125;-71
2022/09/02 01:25:22;;;;;;;0.30;0.30;;;;;;;;;;7376222;19;20137;-71
2022/09/02 01:27:49;;;;;;;0.30;0.30;;;;;;;;;;7380070;19;20125;-71
2022/09/02 01:30:19;;;;;;;0.30;0.30;;;;;;;;;;7375373;19;20109;-71
2022/09/02 01:32:44;;;;;;;0.30;0.30;;;;;;;;;;7377899;19;20157;-70
2022/09/02 01:35:11;;;;;;;0.30;0.30;;;;;;;;;;7376576;19;20113;-71
2022/09/02 01:37:38;;;;;;;0.33;0.33;;;;;;;;;;7379945;19;20125;-71
2022/09/02 01:40:08;;;;;;;0.33;0.33;;;;;;;;;;7377578;19;20106;-71
2022/09/02 01:42:34;;;;;;;0.30;0.30;;;;;;;;;;7378102;19;20208;-71
2022/09/02 01:44:59;;;;;;;0.20;0.20;;;;;;;;;;7376477;19;20117;-71
2022/09/02 01:47:26;;;;;;;0.20;0.20;;;;;;;;;;7381619;19;20126;-71
2022/09/02 01:49:51;;;;;;;0.20;0.20;;;;;;;;;;7378700;19;20117;-70
2022/09/02 01:52:19;;;;;;;0.20;0.20;;;;;;;;;;7374651;19;20133;-70
2022/09/02 01:54:45;;;;;;;0.30;0.30;;;;;;;;;;7378126;19;20558;-71
2022/09/02 01:57:11;;;;;;;0.30;0.30;;;;;;;;;;7378613;19;20126;-70
2022/09/02 01:59:36;;;;;;;0.30;0.30;;;;;;;;;;7374524;19;20121;-70
2022/09/02 02:02:02;;;;;;;0.30;0.30;;;;;;;;;;7377231;19;20120;-71
2022/09/02 02:04:27;;;;;;;0.40;0.40;;;;;;;;;;7372899;19;20617;-70
2022/09/02 02:06:53;;;;;;;0.30;0.30;;;;;;;;;;7386501;19;20132;-70
2022/09/02 02:09:19;;;;;;;0.30;0.30;;;;;;;;;;7381932;19;20105;-71
2022/09/02 02:11:45;;;;;;;0.30;0.30;;;;;;;;;;7387336;19;20116;-71
2022/09/02 02:14:11;;;;;;;0.30;0.30;;;;;;;;;;7385206;19;20161;-71
2022/09/02 02:16:36;;;;;;;0.30;0.30;;;;;;;;;;7384419;19;20118;-70
2022/09/02 02:19:03;;;;;;;0.30;0.30;;;;;;;;;;7388808;19;20101;-71
2022/09/02 02:21:28;;;;;;;0.30;0.30;;;;;;;;;;7386623;19;20140;-71
2022/09/02 02:23:54;;;;;;;0.30;0.30;;;;;;;;;;7383077;19;20121;-71
2022/09/02 02:26:19;;;;;;;0.30;0.30;;;;;;;;;;7383187;19;20561;-71
2022/09/02 02:28:44;;;;;;;0.33;0.33;;;;;;;;;;7385918;19;20193;-70
2022/09/02 02:31:10;;;;;;;0.30;0.30;;;;;;;;;;7381412;19;20117;-70
2022/09/02 02:33:37;;;;;;;0.30;0.30;;;;;;;;;;7385329;19;20184;-70
2022/09/02 02:36:04;;;;;;;0.30;0.30;;;;;;;;;;7380734;19;20136;-70
2022/09/02 02:38:31;;;;;;;0.30;0.30;;;;;;;;;;7383526;19;20496;-70
2022/09/02 02:40:56;;;;;;;0.40;0.40;;;;;;;;;;7388612;19;20169;-70
2022/09/02 02:43:25;;;;;;;0.23;0.23;;;;;;;;;;7382026;19;20494;-71
2022/09/02 02:45:52;;;;;;;0.30;0.30;;;;;;;;;;7388113;19;20259;-71
2022/09/02 14:47:26;;;;;;;0.35;0.35;;;;;;;;;;7385338;19;20274;-71
2022/09/02 14:49:54;;;;;;;0.60;0.60;;;;;;;;;;7388073;19;20136;-71
2022/09/02 14:52:20;;;;;;;0.40;0.40;;;;;;;;;;7388964;19;20490;-71
2022/09/02 14:54:48;;;;;;;0.57;0.57;;;;;;;;;;7389540;19;20105;-70
2022/09/02 14:57:26;;;;;;;0.60;0.50;;;;;;;;;;7388400;19;20587;-71
2022/09/02 14:59:52;;;;;;;0.40;0.40;;;;;;;;;;7389762;19;20128;-70
2022/09/02 15:02:31;;;;;;;0.35;0.35;;;;;;;;;;7389175;19;20929;-70
2022/09/02 15:04:59;;;;;;;0.50;0.50;;;;;;;;;;7389114;19;20105;-70
2022/09/02 15:07:24;;;;;;;1.05;0.60;;;;;;;;;;7391168;19;20599;-71
2022/09/02 15:09:51;;;;;;;0.75;0.75;;;;;;;;;;7390149;19;20117;-70
2022/09/02 15:12:18;;;;;;;0.75;0.75;;;;;;;;;;7387779;19;20117;-70
2022/09/02 15:14:44;;;;;;;0.60;0.60;;;;;;;;;;7389668;19;20101;-70
2022/09/02 15:17:12;;;;;;;0.40;0.40;;;;;;;;;;7389868;19;20611;-70
2022/09/02 15:19:38;;;;;;;0.68;0.68;;;;;;;;;;7388477;19;20129;-70
2022/09/02 15:22:03;;;;;;;0.52;0.52;;;;;;;;;;7386386;19;20121;-70
2022/09/02 15:24:28;;;;;;;0.30;0.30;;;;;;;;;;7389184;19;20113;-70
2022/09/02 15:26:54;;;;;;;0.30;0.30;;;;;;;;;;7390967;19;20517;-70
2022/09/02 15:29:20;;;;;;;0.55;0.55;;;;;;;;;;7390194;19;20097;-70
2022/09/02 15:31:45;;;;;;;0.60;0.60;;;;;;;;;;7388649;19;20113;-72
2022/09/02 15:34:10;;;;;;;0.35;0.35;;;;;;;;;;7385875;19;20189;-73
2022/09/02 15:36:36;;;;;;;0.40;0.40;;;;;;;;;;7390772;19;20109;-70
2022/09/02 15:39:01;;;;;;;0.40;0.40;;;;;;;;;;7388856;19;20108;-70
2022/09/02 15:41:27;;;;;;;1.10;0.68;;;;;;;;;;7387426;19;20116;-70
2022/09/02 15:43:53;;;;;;;0.32;0.32;;;;;;;;;;7386189;19;20128;-70
2022/09/02 15:46:21;;;;;;;0.40;0.40;;;;;;;;;;7388469;19;20133;-71
2022/09/02 15:48:47;;;;;;;0.30;0.30;;;;;;;;;;7387970;19;20139;-70
2022/09/02 15:51:14;;;;;;;0.85;0.80;;;;;;;;;;7388965;19;20113;-70
2022/09/02 15:53:39;;;;;;;0.50;0.50;;;;;;;;;;7386211;19;20121;-70
2022/09/02 15:56:14;;;;;;;0.30;0.30;;;;;;;;;;7387767;19;20102;-70
2022/09/02 15:58:40;;;;;;;0.60;0.60;;;;;;;;;;7387638;19;20188;-70
2022/09/02 16:01:05;;;;;;;0.75;0.75;;;;;;;;;;7387156;19;20112;-70
2022/09/02 16:03:30;;;;;;;0.45;0.45;;;;;;;;;;7385393;19;20148;-70
2022/09/02 16:06:03;;;;;;;0.73;0.73;;;;;;;;;;7387536;19;20169;-70
2022/09/02 16:08:29;;;;;;;0.85;0.85;;;;;;;;;;7388489;19;20161;-70
2022/09/02 16:10:54;;;;;;;0.30;0.30;;;;;;;;;;7383713;19;20126;-70
2022/09/02 16:13:20;;;;;;;0.40;0.40;;;;;;;;;;7380906;19;20557;-70
2022/09/02 16:15:46;;;;;;;0.50;0.50;;;;;;;;;;7379929;19;20125;-70
2022/09/02 16:18:11;;;;;;;0.70;0.70;;;;;;;;;;7379007;19;20145;-70
2022/09/02 16:20:36;;;;;;;0.50;0.50;;;;;;;;;;7372868;19;20403;-70
2022/09/02 16:23:02;;;;;;;0.90;0.75;;;;;;;;;;7375514;19;20143;-70
2022/09/02 16:25:27;;;;;;;0.88;0.38;;;;;;;;;;7380784;19;20109;-70
2022/09/02 16:27:53;;;;;;;0.40;0.40;;;;;;;;;;7385629;19;20583;-71
2022/09/02 16:30:19;;;;;;;0.45;0.45;;;;;;;;;;7387390;19;20125;-70
2022/09/02 16:32:46;;;;;;;0.35;0.35;;;;;;;;;;7379151;19;20486;-71
2022/09/02 16:35:11;;;;;;;0.55;0.55;;;;;;;;;;7379877;19;20105;-72
2022/09/02 16:37:37;;;;;;;0.47;0.47;;;;;;;;;;7385194;19;20114;-72
2022/09/02 16:40:03;;;;;;;0.77;0.77;;;;;;;;;;7384490;19;20140;-72
2022/09/02 16:42:28;;;;;;;0.40;0.40;;;;;;;;;;7377584;19;20125;-73
2022/09/02 16:44:54;;;;;;;0.30;0.30;;;;;;;;;;7382754;19;20522;-72
2022/09/02 16:47:19;;;;;;;0.65;0.65;;;;;;;;;;7383598;19;20113;-72
2022/09/02 16:49:45;;;;;;;0.40;0.40;;;;;;;;;;7379320;19;20169;-73
2022/09/02 16:52:10;;;;;;;0.50;0.50;;;;;;;;;;7382121;19;20140;-72
2022/09/02 16:54:35;;;;;;;0.82;0.82;;;;;;;;;;7381544;19;20120;-72
2022/09/02 16:57:01;;;;;;;0.50;0.50;;;;;;;;;;7380391;19;20585;-72
2022/09/02 16:59:26;;;;;;;0.38;0.38;;;;;;;;;;7380293;19;20105;-72
2022/09/02 17:01:52;;;;;;;0.43;0.43;;;;;;;;;;7382722;19;20541;-72
2022/09/02 17:04:17;;;;;;;0.45;0.45;;;;;;;;;;7376750;19;20207;-72
2022/09/02 17:06:42;;;;;;;0.30;0.30;;;;;;;;;;7383946;19;20112;-72
2022/09/02 17:09:08;;;;;;;0.30;0.30;;;;;;;;;;7383068;19;20101;-72
2022/09/02 17:11:36;;;;;;;0.50;0.50;;;;;;;;;;7382447;19;20611;-71
2022/09/02 17:14:05;;;;;;;0.40;0.40;;;;;;;;;;7381804;19;20525;-70
2022/09/02 17:16:33;;;;;;;0.55;0.55;;;;;;;;;;7378714;19;20117;-70
2022/09/02 17:19:01;;;;;;;1.40;0.65;;;;;;;;;;7379299;19;20113;-70
2022/09/02 17:21:32;;;;;;;0.57;0.57;;;;;;;;;;7379901;19;20475;-70
2022/09/02 17:23:58;;;;;;;0.68;0.68;;;;;;;;;;7380358;19;20156;-70
2022/09/02 17:26:25;;;;;;;0.65;0.65;;;;;;;;;;7381325;19;20117;-70
2022/09/02 17:28:54;;;;;;;0.30;0.30;;;;;;;;;;7382557;19;20117;-70
2022/09/02 17:31:28;;;;;;;0.45;0.45;;;;;;;;;;7381062;19;20117;-70
2022/09/02 17:33:55;;;;;;;0.50;0.50;;;;;;;;;;7376278;19;20120;-70
2022/09/02 17:36:21;;;;;;;0.30;0.30;;;;;;;;;;7382774;19;20124;-70
2022/09/02 17:38:47;;;;;;;0.30;0.30;;;;;;;;;;7381792;19;20571;-70
2022/09/02 17:43:56;;;;;;;0.30;0.30;;;;;;;;;;7380752;19;20136;-69
2022/09/02 17:46:22;;;;;;;0.32;0.32;;;;;;;;;;7383021;19;20101;-70
2022/09/02 17:48:47;;;;;;;0.30;0.30;;;;;;;;;;7386092;19;20542;-70
2022/09/02 17:51:14;;;;;;;0.30;0.30;;;;;;;;;;7368795;19;20109;-70
2022/09/02 17:53:39;;;;;;;0.40;0.40;;;;;;;;;;7382239;19;20139;-70
2022/09/02 17:56:14;;;;;;;0.30;0.30;;;;;;;;;;7375311;19;20105;-70
2022/09/02 17:58:49;;;;;;;0.40;0.40;;;;;;;;;;7380890;19;20134;-69
2022/09/02 18:01:18;;;;;;;0.40;0.40;;;;;;;;;;7376264;19;20137;-72
2022/09/02 18:03:52;;;;;;;0.40;0.40;;;;;;;;;;7386662;19;20507;-72
2022/09/02 18:06:26;;;;;;;0.30;0.30;;;;;;;;;;7390632;19;20157;-72
2022/09/02 18:08:57;;;;;;;0.30;0.30;;;;;;;;;;7381805;19;20108;-72
2022/09/02 18:11:22;;;;;;;0.30;0.30;;;;;;;;;;7382319;19;20113;-72
2022/09/02 18:14:11;;;;;;;0.50;0.50;;;;;;;;;;7384583;19;20483;-70
2022/09/02 18:16:59;;;;;;;0.77;0.77;;;;;;;;;;7387612;19;20591;-70
2022/09/02 18:20:01;;;;;;;0.32;0.32;;;;;;;;;;7391712;19;20113;-70
2022/09/02 18:22:41;;;;;;;0.40;0.40;;;;;;;;;;7389427;19;20108;-70
2022/09/02 18:25:28;;;;;;;0.50;0.50;;;;;;;;;;7389776;19;20109;-70
2022/09/02 18:28:32;;;;;;;0.30;0.30;;;;;;;;;;7390072;19;20117;-70
2022/09/02 18:31:15;;;;;;;0.30;0.30;;;;;;;;;;7387698;19;20121;-70
2022/09/02 18:34:11;;;;;;;0.30;0.30;;;;;;;;;;7383100;19;20128;-70
2022/09/02 18:37:05;;;;;;;0.30;0.30;;;;;;;;;;7382848;19;20144;-70
2022/09/02 18:39:40;;;;;;;0.57;0.57;;;;;;;;;;7386471;19;20483;-70
2022/09/02 18:42:08;;;;;;;0.30;0.30;;;;;;;;;;7370662;19;20120;-70
2022/09/02 18:44:42;;;;;;;0.30;0.30;;;;;;;;;;7382270;19;20125;-70
2022/09/02 18:47:10;;;;;;;0.30;0.30;;;;;;;;;;7377936;19;20125;-70
2022/09/02 18:49:37;;;;;;;0.30;0.30;;;;;;;;;;7387346;19;20106;-70
2022/09/02 18:52:05;;;;;;;0.20;0.20;;;;;;;;;;7378387;19;20122;-72
2022/09/02 18:54:59;;;;;;;0.30;0.30;;;;;;;;;;7377547;19;20353;-72
2022/09/02 18:57:27;;;;;;;0.30;0.30;;;;;;;;;;7384935;19;20109;-72
2022/09/02 18:59:59;;;;;;;0.90;0.90;;;;;;;;;;7379853;19;20112;-72
2022/09/02 19:02:34;;;;;;;0.60;0.60;;;;;;;;;;7384778;19;20109;-72
2022/09/02 19:05:00;;;;;;;0.30;0.30;;;;;;;;;;7380474;19;20120;-72
2022/09/02 19:10:10;;;;;;;0.77;0.77;;;;;;;;;;7388688;19;20118;-72
2022/09/02 19:12:36;;;;;;;0.30;0.30;;;;;;;;;;7387172;19;20117;-73
2022/09/02 19:15:06;;;;;;;0.30;0.30;;;;;;;;;;7379989;19;20192;-72
2022/09/02 19:17:31;;;;;;;0.30;0.30;;;;;;;;;;7386239;19;20154;-72
2022/09/02 19:19:57;;;;;;;0.30;0.30;;;;;;;;;;7383615;19;20121;-72
2022/09/02 19:22:27;;;;;;;0.30;0.30;;;;;;;;;;7379399;19;20529;-72
2022/09/02 19:24:56;;;;;;;0.30;0.30;;;;;;;;;;7386364;19;20104;-72
2022/09/02 19:27:24;;;;;;;0.30;0.30;;;;;;;;;;7385223;19;20126;-72
2022/09/02 19:29:52;;;;;;;0.30;0.30;;;;;;;;;;7385650;19;20113;-72
2022/09/02 19:32:24;;;;;;;0.40;0.40;;;;;;;;;;7385643;19;20112;-72
2022/09/02 19:34:49;;;;;;;0.30;0.30;;;;;;;;;;7385737;19;20101;-72
2022/09/02 19:37:15;;;;;;;0.40;0.40;;;;;;;;;;7389304;19;20101;-72
2022/09/02 19:39:41;;;;;;;0.30;0.30;;;;;;;;;;7389833;19;20116;-70
2022/09/02 19:42:06;;;;;;;0.30;0.30;;;;;;;;;;7382924;19;20126;-70
2022/09/02 19:44:31;;;;;;;0.40;0.40;;;;;;;;;;7384139;19;20113;-70
2022/09/02 19:46:57;;;;;;;0.30;0.30;;;;;;;;;;7384666;19;20105;-70
2022/09/02 19:49:23;;;;;;;0.30;0.30;;;;;;;;;;7388570;19;20116;-70
2022/09/02 19:51:49;;;;;;;0.30;0.30;;;;;;;;;;7388097;19;20116;-70
2022/09/02 19:54:15;;;;;;;0.30;0.30;;;;;;;;;;7385190;19;20189;-70
2022/09/02 19:56:41;;;;;;;0.30;0.30;;;;;;;;;;7388397;19;20173;-70
2022/09/02 19:59:06;;;;;;;0.30;0.30;;;;;;;;;;7379972;19;20126;-70
2022/09/02 20:01:32;;;;;;;0.30;0.30;;;;;;;;;;7377748;19;20567;-70
2022/09/02 20:03:57;;;;;;;0.30;0.30;;;;;;;;;;7379339;19;20117;-69
2022/09/02 20:06:22;;;;;;;0.30;0.30;;;;;;;;;;7382561;19;20105;-69
2022/09/02 20:08:47;;;;;;;0.55;0.55;;;;;;;;;;7385208;19;20107;-70
2022/09/02 20:11:13;;;;;;;0.30;0.30;;;;;;;;;;7382398;19;20458;-70
2022/09/02 20:13:38;;;;;;;0.30;0.30;;;;;;;;;;7378537;19;20586;-70
2022/09/02 20:16:04;;;;;;;0.30;0.30;;;;;;;;;;7385513;19;20622;-70
2022/09/02 20:18:30;;;;;;;0.30;0.30;;;;;;;;;;7382806;19;20575;-70
2022/09/02 20:20:57;;;;;;;0.30;0.30;;;;;;;;;;7373479;19;20124;-70
2022/09/02 20:23:25;;;;;;;0.30;0.30;;;;;;;;;;7373131;19;20129;-70
2022/09/02 20:26:15;;;;;;;0.30;0.30;;;;;;;;;;7384014;19;20117;-69
2022/09/02 20:28:55;;;;;;;0.30;0.30;;;;;;;;;;7380722;19;20133;-70
2022/09/02 20:31:32;;;;;;;0.30;0.30;;;;;;;;;;7382768;19;20113;-70
2022/09/02 20:34:08;;;;;;;0.28;0.28;;;;;;;;;;7383295;19;20124;-70
2022/09/02 20:37:04;;;;;;;0.30;0.30;;;;;;;;;;7379620;19;20245;-70
2022/09/02 20:39:45;;;;;;;0.30;0.30;;;;;;;;;;7380769;19;20113;-70
2022/09/02 20:42:41;;;;;;;0.30;0.30;;;;;;;;;;7374149;19;20117;-70
2022/09/02 20:45:26;;;;;;;0.30;0.30;;;;;;;;;;7380860;19;20611;-71
2022/09/02 20:48:11;;;;;;;0.47;0.47;;;;;;;;;;7383571;19;20461;-70
2022/09/02 20:51:01;;;;;;;0.30;0.30;;;;;;;;;;7381934;19;20112;-70
2022/09/02 20:53:42;;;;;;;0.40;0.40;;;;;;;;;;7378913;19;20647;-70
2022/09/02 20:56:44;;;;;;;0.43;0.43;;;;;;;;;;7384976;19;20101;-70
2022/09/02 20:59:34;;;;;;;0.30;0.30;;;;;;;;;;7386241;19;20109;-70
2022/09/02 21:02:00;;;;;;;0.30;0.30;;;;;;;;;;7381598;19;20097;-70
2022/09/02 21:04:40;;;;;;;0.30;0.30;;;;;;;;;;7381283;19;20129;-70
2022/09/02 21:07:23;;;;;;;0.32;0.32;;;;;;;;;;7381433;19;20136;-70
2022/09/02 21:09:55;;;;;;;0.30;0.30;;;;;;;;;;7386265;19;20123;-70
2022/09/02 21:12:25;;;;;;;0.40;0.40;;;;;;;;;;7389204;19;20590;-69
2022/09/02 21:14:57;;;;;;;0.32;0.32;;;;;;;;;;7392340;19;20109;-70
2022/09/02 21:17:33;;;;;;;0.30;0.30;;;;;;;;;;7389270;19;20132;-70
2022/09/02 21:20:16;;;;;;;0.30;0.30;;;;;;;;;;7390064;19;20112;-70
2022/09/02 21:22:46;;;;;;;0.30;0.30;;;;;;;;;;7391278;19;20139;-70
2022/09/02 21:25:21;;;;;;;0.30;0.30;;;;;;;;;;7389915;19;20603;-70
2022/09/02 21:27:54;;;;;;;0.40;0.40;;;;;;;;;;7391439;19;20101;-70
2022/09/02 21:30:22;;;;;;;0.30;0.30;;;;;;;;;;7391824;19;20105;-70
2022/09/02 21:32:54;;;;;;;0.30;0.30;;;;;;;;;;7390305;19;20149;-69
2022/09/02 21:35:22;;;;;;;0.30;0.30;;;;;;;;;;7388678;19;20461;-69
2022/09/02 21:37:52;;;;;;;0.38;0.38;;;;;;;;;;7389707;19;20116;-70
2022/09/02 21:40:19;;;;;;;0.30;0.30;;;;;;;;;;7390573;19;20620;-71
2022/09/02 21:43:08;;;;;;;0.40;0.40;;;;;;;;;;7382826;19;20482;-72
2022/09/02 21:46:05;;;;;;;0.30;0.30;;;;;;;;;;7389915;19;20192;-72
2022/09/02 21:48:46;;;;;;;0.30;0.30;;;;;;;;;;7390015;19;20117;-71
2022/09/02 21:51:23;;;;;;;0.30;0.30;;;;;;;;;;7387047;19;20113;-72
2022/09/02 21:54:03;;;;;;;0.30;0.30;;;;;;;;;;7384353;19;20192;-72
2022/09/02 21:57:05;;;;;;;0.30;0.30;;;;;;;;;;7386541;19;20125;-72
2022/09/02 21:59:53;;;;;;;0.30;0.30;;;;;;;;;;7390471;19;20136;-72
2022/09/02 22:02:26;;;;;;;0.30;0.30;;;;;;;;;;7380265;19;20136;-72
2022/09/02 22:05:23;;;;;;;0.30;0.30;;;;;;;;;;7385918;19;20118;-72
2022/09/02 22:08:10;;;;;;;0.95;0.95;;;;;;;;;;7386402;19;20576;-72
2022/09/02 22:11:08;;;;;;;0.40;0.40;;;;;;;;;;7387023;19;20109;-71
2022/09/02 22:13:39;;;;;;;0.50;0.50;;;;;;;;;;7387612;19;20125;-72
2022/09/02 22:16:04;;;;;;;0.50;0.50;;;;;;;;;;7393073;19;20134;-72
2022/09/02 22:18:36;;;;;;;1.10;1.10;;;;;;;;;;7390130;19;20393;-72
2022/09/02 22:21:09;;;;;;;0.30;0.30;;;;;;;;;;7384781;19;20126;-70
2022/09/02 22:23:35;;;;;;;0.30;0.30;;;;;;;;;;7383218;19;20149;-70
2022/09/02 22:26:11;;;;;;;0.20;0.20;;;;;;;;;;7386852;19;20595;-70
2022/09/02 22:28:41;;;;;;;0.30;0.30;;;;;;;;;;7387947;19;20141;-70
2022/09/02 22:31:09;;;;;;;0.30;0.30;;;;;;;;;;7386609;19;20427;-70
2022/09/02 22:33:41;;;;;;;0.30;0.30;;;;;;;;;;7385199;19;20159;-70
2022/09/02 22:36:10;;;;;;;0.30;0.30;;;;;;;;;;7390656;19;20101;-70
2022/09/02 22:38:40;;;;;;;0.30;0.30;;;;;;;;;;7388364;19;20109;-70
2022/09/02 22:41:22;;;;;;;0.30;0.30;;;;;;;;;;7388158;19;20173;-70
2022/09/02 22:44:00;;;;;;;0.30;0.30;;;;;;;;;;7383353;19;20502;-70
2022/09/02 22:52:56;;;;;;;0.28;0.28;;;;;;;;;;7389448;19;20126;-70
2022/09/02 22:55:59;;;;;;;0.43;0.43;;;;;;;;;;7388766;19;20121;-70
2022/09/02 22:58:38;;;;;;;0.40;0.40;;;;;;;;;;7386357;19;20176;-70
2022/09/02 23:01:15;;;;;;;0.30;0.30;;;;;;;;;;7384197;19;20120;-69
2022/09/02 23:04:10;;;;;;;0.30;0.30;;;;;;;;;;7377007;19;20129;-70
2022/09/02 23:06:35;;;;;;;0.30;0.30;;;;;;;;;;7387044;19;20153;-70
2022/09/02 23:09:07;;;;;;;0.30;0.30;;;;;;;;;;7386534;19;20117;-70
2022/09/02 23:11:35;;;;;;;0.30;0.30;;;;;;;;;;7382188;19;20592;-70
2022/09/02 23:14:10;;;;;;;0.30;0.30;;;;;;;;;;7380597;19;20436;-70
2022/09/02 23:17:17;;;;;;;0.30;0.30;;;;;;;;;;7381587;19;20100;-70
2022/09/02 23:20:01;;;;;;;0.30;0.30;;;;;;;;;;7388249;19;20112;-70
2022/09/02 23:22:56;;;;;;;0.30;0.30;;;;;;;;;;7384878;19;20105;-70
2022/09/02 23:25:25;;;;;;;0.30;0.30;;;;;;;;;;7385076;19;20109;-70
2022/09/02 23:27:57;;;;;;;0.30;0.30;;;;;;;;;;7387429;19;20116;-70
2022/09/02 23:30:22;;;;;;;0.20;0.20;;;;;;;;;;7383899;19;20483;-70
2022/09/02 23:33:16;;;;;;;0.82;0.82;;;;;;;;;;7382234;19;20125;-70
2022/09/02 23:35:53;;;;;;;0.30;0.30;;;;;;;;;;7382309;19;20121;-70
2022/09/02 23:38:18;;;;;;;0.30;0.30;;;;;;;;;;7380881;19;20174;-70
2022/09/02 23:40:56;;;;;;;0.30;0.30;;;;;;;;;;7389243;19;20108;-70
2022/09/02 23:43:21;;;;;;;0.30;0.30;;;;;;;;;;7373811;19;20136;-70
2022/09/02 23:45:47;;;;;;;0.30;0.30;;;;;;;;;;7380597;19;20604;-70
2022/09/02 23:48:21;;;;;;;0.70;0.70;;;;;;;;;;7381858;19;20112;-70
2022/09/02 23:50:56;;;;;;;0.30;0.30;;;;;;;;;;7381982;19;20583;-70
2022/09/02 23:53:24;;;;;;;0.30;0.30;;;;;;;;;;7381346;19;20128;-70
2022/09/02 23:56:02;;;;;;;0.85;0.85;;;;;;;;;;7380765;19;20118;-69
2022/09/02 23:58:59;;;;;;;0.30;0.30;;;;;;;;;;7381114;19;20109;-69
